sensor_id;sensor_type;location;lat;lon;timestamp;temperature;humidity
6178;DHT22;3122;48.208;11.174;2022-07-04T00:03:07;20.10;1.00
6178;DHT22;3122;48.208;11.174;2022-07-04T00:08:07;20.10;1.00
6178;DHT22;3122;48.208;11.174;2022-07-04T00:13:08;19.80;1.00
6178;DHT22;3122;48.208;11.174;2022-07-04T00:18:09;19.60;1.00
6178;DHT22;3122;48.208;11.174;2022-07-04T00:23:09;19.40;1.00
6178;DHT22;3122;48.208;11.174;2022-07-04T00:28:10;19.20;1.00
6178;DHT22;3122;48.208;11.174;2022-07-04T00:33:12;19.10;1.00
6178;DHT22;3122;48.208;11.174;2022-07-04T00:38:13;19.10;1.00
6178;DHT22;3122;48.208;11.174;2022-07-04T00:43:24;19.20;1.00
6178;DHT22;3122;48.208;11.174;2022-07-04T00:48:25;19.40;1.00
6178;DHT22;3122;48.208;11.174;2022-07-04T00:53:26;19.20;1.00
6178;DHT22;3122;48.208;11.174;2022-07-04T00:58:26;19.10;1.00
6178;DHT22;3122;48.208;11.174;2022-07-04T01:03:27;19.00;1.00
6178;DHT22;3122;48.208;11.174;2022-07-04T01:08:28;19.00;1.00
6178;DHT22;3122;48.208;11.174;2022-07-04T01:13:29;19.20;1.00
6178;DHT22;3122;48.208;11.174;2022-07-04T01:18:30;19.20;1.00
6178;DHT22;3122;48.208;11.174;2022-07-04T01:23:31;19.10;1.00
6178;DHT22;3122;48.208;11.174;2022-07-04T01:28:32;19.00;1.00
6178;DHT22;3122;48.208;11.174;2022-07-04T01:33:33;19.10;1.00
6178;DHT22;3122;48.208;11.174;2022-07-04T01:38:34;19.10;1.00
6178;DHT22;3122;48.208;11.174;2022-07-04T01:43:34;18.90;1.00
6178;DHT22;3122;48.208;11.174;2022-07-04T01:48:35;18.80;1.00
6178;DHT22;3122;48.208;11.174;2022-07-04T01:53:36;18.80;1.00
6178;DHT22;3122;48.208;11.174;2022-07-04T01:58:37;18.90;1.00
6178;DHT22;3122;48.208;11.174;2022-07-04T02:03:38;18.70;1.00
6178;DHT22;3122;48.208;11.174;2022-07-04T02:08:39;18.70;1.00
6178;DHT22;3122;48.208;11.174;2022-07-04T02:13:58;18.60;1.00
6178;DHT22;3122;48.208;11.174;2022-07-04T02:18:58;18.50;1.00
6178;DHT22;3122;48.208;11.174;2022-07-04T02:23:59;18.50;1.00
6178;DHT22;3122;48.208;11.174;2022-07-04T02:29:00;18.60;1.00
6178;DHT22;3122;48.208;11.174;2022-07-04T02:34:01;18.60;1.00
6178;DHT22;3122;48.208;11.174;2022-07-04T02:39:01;18.70;1.00
6178;DHT22;3122;48.208;11.174;2022-07-04T02:44:02;18.50;1.00
6178;DHT22;3122;48.208;11.174;2022-07-04T02:49:03;18.50;1.00
6178;DHT22;3122;48.208;11.174;2022-07-04T02:54:04;18.60;1.00
6178;DHT22;3122;48.208;11.174;2022-07-04T02:59:05;18.50;1.00
6178;DHT22;3122;48.208;11.174;2022-07-04T03:04:05;18.40;1.00
6178;DHT22;3122;48.208;11.174;2022-07-04T03:09:06;18.30;1.00
6178;DHT22;3122;48.208;11.174;2022-07-04T03:14:07;18.40;1.00
6178;DHT22;3122;48.208;11.174;2022-07-04T03:19:07;18.30;1.00
6178;DHT22;3122;48.208;11.174;2022-07-04T03:24:08;18.20;1.00
6178;DHT22;3122;48.208;11.174;2022-07-04T03:29:09;18.30;1.00
6178;DHT22;3122;48.208;11.174;2022-07-04T03:34:10;18.20;1.00
6178;DHT22;3122;48.208;11.174;2022-07-04T03:39:11;18.20;1.00
6178;DHT22;3122;48.208;11.174;2022-07-04T03:44:12;18.30;1.00
6178;DHT22;3122;48.208;11.174;2022-07-04T03:49:12;18.30;1.00
6178;DHT22;3122;48.208;11.174;2022-07-04T03:54:13;18.30;1.00
6178;DHT22;3122;48.208;11.174;2022-07-04T03:59:13;18.30;1.00
6178;DHT22;3122;48.208;11.174;2022-07-04T04:04:14;18.20;1.00
6178;DHT22;3122;48.208;11.174;2022-07-04T04:09:33;18.00;1.00
6178;DHT22;3122;48.208;11.174;2022-07-04T04:14:34;18.00;1.00
6178;DHT22;3122;48.208;11.174;2022-07-04T04:19:35;18.10;1.00
6178;DHT22;3122;48.208;11.174;2022-07-04T04:24:35;18.30;1.00
6178;DHT22;3122;48.208;11.174;2022-07-04T04:29:36;18.10;1.00
6178;DHT22;3122;48.208;11.174;2022-07-04T04:34:36;18.20;1.00
6178;DHT22;3122;48.208;11.174;2022-07-04T04:39:37;18.30;1.00
6178;DHT22;3122;48.208;11.174;2022-07-04T04:44:39;18.30;1.00
6178;DHT22;3122;48.208;11.174;2022-07-04T04:49:40;18.50;1.00
6178;DHT22;3122;48.208;11.174;2022-07-04T04:54:40;18.40;1.00
6178;DHT22;3122;48.208;11.174;2022-07-04T04:59:41;18.40;1.00
6178;DHT22;3122;48.208;11.174;2022-07-04T05:04:41;18.30;1.00
6178;DHT22;3122;48.208;11.174;2022-07-04T05:09:42;18.50;1.00
6178;DHT22;3122;48.208;11.174;2022-07-04T05:14:43;18.50;1.00
6178;DHT22;3122;48.208;11.174;2022-07-04T05:19:43;18.70;1.00
6178;DHT22;3122;48.208;11.174;2022-07-04T05:24:44;18.80;1.00
6178;DHT22;3122;48.208;11.174;2022-07-04T05:29:44;19.00;1.00
6178;DHT22;3122;48.208;11.174;2022-07-04T05:34:45;19.00;1.00
6178;DHT22;3122;48.208;11.174;2022-07-04T05:39:46;19.10;1.00
6178;DHT22;3122;48.208;11.174;2022-07-04T05:44:46;19.10;1.00
6178;DHT22;3122;48.208;11.174;2022-07-04T05:49:47;19.30;1.00
6178;DHT22;3122;48.208;11.174;2022-07-04T05:54:48;19.30;1.00
6178;DHT22;3122;48.208;11.174;2022-07-04T05:59:48;19.30;1.00
6178;DHT22;3122;48.208;11.174;2022-07-04T06:04:49;19.30;1.00
6178;DHT22;3122;48.208;11.174;2022-07-04T06:09:50;19.20;1.00
6178;DHT22;3122;48.208;11.174;2022-07-04T06:14:50;19.20;1.00
6178;DHT22;3122;48.208;11.174;2022-07-04T06:19:51;19.30;1.00
6178;DHT22;3122;48.208;11.174;2022-07-04T06:24:52;19.30;1.00
6178;DHT22;3122;48.208;11.174;2022-07-04T06:29:52;19.30;1.00
6178;DHT22;3122;48.208;11.174;2022-07-04T06:34:53;19.40;1.00
6178;DHT22;3122;48.208;11.174;2022-07-04T06:40:12;19.40;1.00
6178;DHT22;3122;48.208;11.174;2022-07-04T06:45:13;19.40;1.00
6178;DHT22;3122;48.208;11.174;2022-07-04T06:50:13;19.40;1.00
6178;DHT22;3122;48.208;11.174;2022-07-04T06:55:14;19.40;1.00
6178;DHT22;3122;48.208;11.174;2022-07-04T07:00:15;19.40;1.00
6178;DHT22;3122;48.208;11.174;2022-07-04T07:05:16;19.30;1.00
6178;DHT22;3122;48.208;11.174;2022-07-04T07:10:17;19.20;1.00
6178;DHT22;3122;48.208;11.174;2022-07-04T07:15:17;19.10;1.00
6178;DHT22;3122;48.208;11.174;2022-07-04T07:20:20;19.20;1.00
6178;DHT22;3122;48.208;11.174;2022-07-04T07:25:20;19.30;1.00
6178;DHT22;3122;48.208;11.174;2022-07-04T07:30:21;19.50;1.00
6178;DHT22;3122;48.208;11.174;2022-07-04T07:35:22;19.50;1.00
6178;DHT22;3122;48.208;11.174;2022-07-04T07:40:22;19.50;1.00
6178;DHT22;3122;48.208;11.174;2022-07-04T07:45:23;19.80;1.00
6178;DHT22;3122;48.208;11.174;2022-07-04T07:50:24;19.90;1.00
6178;DHT22;3122;48.208;11.174;2022-07-04T07:55:24;20.10;1.00
6178;DHT22;3122;48.208;11.174;2022-07-04T08:00:26;20.30;1.00
6178;DHT22;3122;48.208;11.174;2022-07-04T08:05:26;20.50;1.00
6178;DHT22;3122;48.208;11.174;2022-07-04T08:10:27;20.60;1.00
6178;DHT22;3122;48.208;11.174;2022-07-04T08:15:27;20.70;1.00
6178;DHT22;3122;48.208;11.174;2022-07-04T08:20:28;20.70;1.00
6178;DHT22;3122;48.208;11.174;2022-07-04T08:25:29;20.90;1.00
6178;DHT22;3122;48.208;11.174;2022-07-04T08:30:29;21.00;1.00
6178;DHT22;3122;48.208;11.174;2022-07-04T08:35:30;21.20;1.00
6178;DHT22;3122;48.208;11.174;2022-07-04T08:40:31;21.50;1.00
6178;DHT22;3122;48.208;11.174;2022-07-04T08:45:33;21.80;1.00
6178;DHT22;3122;48.208;11.174;2022-07-04T08:50:38;22.00;1.00
6178;DHT22;3122;48.208;11.174;2022-07-04T08:55:42;22.20;1.00
6178;DHT22;3122;48.208;11.174;2022-07-04T09:01:04;22.40;1.00
6178;DHT22;3122;48.208;11.174;2022-07-04T09:06:04;22.80;1.00
6178;DHT22;3122;48.208;11.174;2022-07-04T09:11:06;22.90;1.00
6178;DHT22;3122;48.208;11.174;2022-07-04T09:16:07;23.10;1.00
6178;DHT22;3122;48.208;11.174;2022-07-04T09:21:09;23.00;1.00
6178;DHT22;3122;48.208;11.174;2022-07-04T09:31:21;22.80;1.00
6178;DHT22;3122;48.208;11.174;2022-07-04T09:36:25;22.80;1.00
6178;DHT22;3122;48.208;11.174;2022-07-04T09:41:25;23.10;1.00
6178;DHT22;3122;48.208;11.174;2022-07-04T09:46:27;23.40;1.00
6178;DHT22;3122;48.208;11.174;2022-07-04T09:51:49;23.80;1.00
6178;DHT22;3122;48.208;11.174;2022-07-04T09:56:52;23.80;1.00
6178;DHT22;3122;48.208;11.174;2022-07-04T10:02:09;23.70;1.00
6178;DHT22;3122;48.208;11.174;2022-07-04T10:07:10;24.00;1.00
6178;DHT22;3122;48.208;11.174;2022-07-04T10:12:25;24.20;1.00
6178;DHT22;3122;48.208;11.174;2022-07-04T10:17:26;24.10;1.00
6178;DHT22;3122;48.208;11.174;2022-07-04T10:22:27;24.00;1.00
6178;DHT22;3122;48.208;11.174;2022-07-04T10:27:27;24.00;1.00
6178;DHT22;3122;48.208;11.174;2022-07-04T10:32:28;24.10;1.00
6178;DHT22;3122;48.208;11.174;2022-07-04T10:37:57;24.40;1.00
6178;DHT22;3122;48.208;11.174;2022-07-04T10:42:58;24.60;1.00
6178;DHT22;3122;48.208;11.174;2022-07-04T10:47:59;24.80;1.00
6178;DHT22;3122;48.208;11.174;2022-07-04T10:53:09;24.60;1.00
6178;DHT22;3122;48.208;11.174;2022-07-04T10:58:10;24.20;1.00
6178;DHT22;3122;48.208;11.174;2022-07-04T11:03:15;24.50;1.00
6178;DHT22;3122;48.208;11.174;2022-07-04T11:08:16;24.10;1.00
6178;DHT22;3122;48.208;11.174;2022-07-04T11:13:17;24.10;1.00
6178;DHT22;3122;48.208;11.174;2022-07-04T11:18:18;24.20;1.00
6178;DHT22;3122;48.208;11.174;2022-07-04T11:23:20;24.00;1.00
6178;DHT22;3122;48.208;11.174;2022-07-04T11:33:25;24.00;1.00
6178;DHT22;3122;48.208;11.174;2022-07-04T11:38:26;23.90;1.00
6178;DHT22;3122;48.208;11.174;2022-07-04T11:43:42;23.90;1.00
6178;DHT22;3122;48.208;11.174;2022-07-04T11:49:11;24.10;1.00
6178;DHT22;3122;48.208;11.174;2022-07-04T11:54:12;24.30;1.00
6178;DHT22;3122;48.208;11.174;2022-07-04T11:59:16;24.60;1.00
6178;DHT22;3122;48.208;11.174;2022-07-04T12:04:19;25.20;1.00
6178;DHT22;3122;48.208;11.174;2022-07-04T12:09:19;25.10;1.00
6178;DHT22;3122;48.208;11.174;2022-07-04T12:14:20;24.60;1.00
6178;DHT22;3122;48.208;11.174;2022-07-04T12:19:21;24.70;1.00
6178;DHT22;3122;48.208;11.174;2022-07-04T12:24:22;25.00;1.00
6178;DHT22;3122;48.208;11.174;2022-07-04T12:29:23;25.00;1.00
6178;DHT22;3122;48.208;11.174;2022-07-04T12:34:24;25.60;1.00
6178;DHT22;3122;48.208;11.174;2022-07-04T12:39:32;25.70;1.00
6178;DHT22;3122;48.208;11.174;2022-07-04T12:44:33;25.90;1.00
6178;DHT22;3122;48.208;11.174;2022-07-04T12:49:35;25.30;1.00
6178;DHT22;3122;48.208;11.174;2022-07-04T12:54:36;25.30;1.00
6178;DHT22;3122;48.208;11.174;2022-07-04T12:59:38;25.50;1.00
6178;DHT22;3122;48.208;11.174;2022-07-04T13:04:39;25.90;1.00
6178;DHT22;3122;48.208;11.174;2022-07-04T13:09:41;26.30;1.00
6178;DHT22;3122;48.208;11.174;2022-07-04T13:14:42;26.30;1.00
6178;DHT22;3122;48.208;11.174;2022-07-04T13:19:43;26.30;1.00
6178;DHT22;3122;48.208;11.174;2022-07-04T13:24:43;25.90;1.00
6178;DHT22;3122;48.208;11.174;2022-07-04T13:29:44;25.80;1.00
6178;DHT22;3122;48.208;11.174;2022-07-04T13:34:44;25.80;1.00
6178;DHT22;3122;48.208;11.174;2022-07-04T13:39:45;25.70;1.00
6178;DHT22;3122;48.208;11.174;2022-07-04T13:44:46;25.50;1.00
6178;DHT22;3122;48.208;11.174;2022-07-04T13:49:46;25.40;1.00
6178;DHT22;3122;48.208;11.174;2022-07-04T13:54:47;25.50;1.00
6178;DHT22;3122;48.208;11.174;2022-07-04T13:59:47;26.00;1.00
6178;DHT22;3122;48.208;11.174;2022-07-04T14:04:48;26.30;1.00
6178;DHT22;3122;48.208;11.174;2022-07-04T14:09:48;26.20;1.00
6178;DHT22;3122;48.208;11.174;2022-07-04T14:14:49;26.60;1.00
6178;DHT22;3122;48.208;11.174;2022-07-04T14:19:50;26.30;1.00
6178;DHT22;3122;48.208;11.174;2022-07-04T14:24:50;25.90;1.00
6178;DHT22;3122;48.208;11.174;2022-07-04T14:29:51;25.70;1.00
6178;DHT22;3122;48.208;11.174;2022-07-04T14:34:52;26.00;1.00
6178;DHT22;3122;48.208;11.174;2022-07-04T14:39:52;26.70;1.00
6178;DHT22;3122;48.208;11.174;2022-07-04T14:44:53;27.30;1.00
6178;DHT22;3122;48.208;11.174;2022-07-04T14:49:53;26.30;1.00
6178;DHT22;3122;48.208;11.174;2022-07-04T14:54:54;26.80;1.00
6178;DHT22;3122;48.208;11.174;2022-07-04T14:59:55;27.20;1.00
6178;DHT22;3122;48.208;11.174;2022-07-04T15:04:55;27.70;1.00
6178;DHT22;3122;48.208;11.174;2022-07-04T15:09:56;27.80;1.00
6178;DHT22;3122;48.208;11.174;2022-07-04T15:14:56;27.90;1.00
6178;DHT22;3122;48.208;11.174;2022-07-04T15:19:57;28.30;1.00
6178;DHT22;3122;48.208;11.174;2022-07-04T15:25:16;28.60;1.00
6178;DHT22;3122;48.208;11.174;2022-07-04T15:30:17;28.70;1.00
6178;DHT22;3122;48.208;11.174;2022-07-04T15:35:17;29.10;1.00
6178;DHT22;3122;48.208;11.174;2022-07-04T15:40:18;27.30;1.00
6178;DHT22;3122;48.208;11.174;2022-07-04T15:45:19;26.90;1.00
6178;DHT22;3122;48.208;11.174;2022-07-04T15:50:19;27.00;1.00
6178;DHT22;3122;48.208;11.174;2022-07-04T15:55:20;26.60;1.00
6178;DHT22;3122;48.208;11.174;2022-07-04T16:00:21;26.10;1.00
6178;DHT22;3122;48.208;11.174;2022-07-04T16:05:21;25.80;1.00
6178;DHT22;3122;48.208;11.174;2022-07-04T16:10:22;25.70;1.00
6178;DHT22;3122;48.208;11.174;2022-07-04T16:15:23;25.30;1.00
6178;DHT22;3122;48.208;11.174;2022-07-04T16:20:23;25.10;1.00
6178;DHT22;3122;48.208;11.174;2022-07-04T16:25:24;25.20;1.00
6178;DHT22;3122;48.208;11.174;2022-07-04T16:30:25;25.10;1.00
6178;DHT22;3122;48.208;11.174;2022-07-04T16:35:25;25.00;1.00
6178;DHT22;3122;48.208;11.174;2022-07-04T16:40:26;25.00;1.00
6178;DHT22;3122;48.208;11.174;2022-07-04T16:45:27;25.00;1.00
6178;DHT22;3122;48.208;11.174;2022-07-04T16:50:27;24.90;1.00
6178;DHT22;3122;48.208;11.174;2022-07-04T16:55:28;24.80;1.00
6178;DHT22;3122;48.208;11.174;2022-07-04T17:00:29;24.70;1.00
6178;DHT22;3122;48.208;11.174;2022-07-04T17:05:30;24.60;1.00
6178;DHT22;3122;48.208;11.174;2022-07-04T17:10:30;24.50;1.00
6178;DHT22;3122;48.208;11.174;2022-07-04T17:15:31;24.40;1.00
6178;DHT22;3122;48.208;11.174;2022-07-04T17:20:32;24.30;1.00
6178;DHT22;3122;48.208;11.174;2022-07-04T17:25:33;24.10;1.00
6178;DHT22;3122;48.208;11.174;2022-07-04T17:30:33;24.00;1.00
6178;DHT22;3122;48.208;11.174;2022-07-04T17:35:34;24.00;1.00
6178;DHT22;3122;48.208;11.174;2022-07-04T17:40:34;24.00;1.00
6178;DHT22;3122;48.208;11.174;2022-07-04T17:45:36;23.80;1.00
6178;DHT22;3122;48.208;11.174;2022-07-04T17:50:37;23.90;1.00
6178;DHT22;3122;48.208;11.174;2022-07-04T17:55:37;23.80;1.00
6178;DHT22;3122;48.208;11.174;2022-07-04T18:00:40;23.60;1.00
6178;DHT22;3122;48.208;11.174;2022-07-04T18:05:41;23.60;1.00
6178;DHT22;3122;48.208;11.174;2022-07-04T18:10:41;23.40;1.00
6178;DHT22;3122;48.208;11.174;2022-07-04T18:15:42;23.40;1.00
6178;DHT22;3122;48.208;11.174;2022-07-04T18:20:43;23.30;1.00
6178;DHT22;3122;48.208;11.174;2022-07-04T18:25:44;23.10;1.00
6178;DHT22;3122;48.208;11.174;2022-07-04T18:30:45;23.10;1.00
6178;DHT22;3122;48.208;11.174;2022-07-04T18:35:46;23.10;1.00
6178;DHT22;3122;48.208;11.174;2022-07-04T18:40:46;23.00;1.00
6178;DHT22;3122;48.208;11.174;2022-07-04T18:46:05;23.00;1.00
6178;DHT22;3122;48.208;11.174;2022-07-04T18:51:06;22.40;1.00
6178;DHT22;3122;48.208;11.174;2022-07-04T18:56:07;22.00;1.00
6178;DHT22;3122;48.208;11.174;2022-07-04T19:01:10;21.50;1.00
6178;DHT22;3122;48.208;11.174;2022-07-04T19:06:11;21.20;1.00
6178;DHT22;3122;48.208;11.174;2022-07-04T19:11:11;21.20;1.00
6178;DHT22;3122;48.208;11.174;2022-07-04T19:16:12;21.10;1.00
6178;DHT22;3122;48.208;11.174;2022-07-04T19:21:22;21.00;1.00
6178;DHT22;3122;48.208;11.174;2022-07-04T19:26:23;20.70;1.00
6178;DHT22;3122;48.208;11.174;2022-07-04T19:31:24;20.30;1.00
6178;DHT22;3122;48.208;11.174;2022-07-04T19:36:25;20.10;1.00
6178;DHT22;3122;48.208;11.174;2022-07-04T19:41:25;20.10;1.00
6178;DHT22;3122;48.208;11.174;2022-07-04T19:46:26;20.20;1.00
6178;DHT22;3122;48.208;11.174;2022-07-04T19:51:27;19.90;1.00
6178;DHT22;3122;48.208;11.174;2022-07-04T19:56:27;19.90;1.00
6178;DHT22;3122;48.208;11.174;2022-07-04T20:01:28;19.90;1.00
6178;DHT22;3122;48.208;11.174;2022-07-04T20:06:28;19.80;1.00
6178;DHT22;3122;48.208;11.174;2022-07-04T20:11:29;20.00;1.00
6178;DHT22;3122;48.208;11.174;2022-07-04T20:16:31;20.00;1.00
6178;DHT22;3122;48.208;11.174;2022-07-04T20:21:34;20.00;1.00
6178;DHT22;3122;48.208;11.174;2022-07-04T20:26:35;19.90;1.00
6178;DHT22;3122;48.208;11.174;2022-07-04T20:31:36;19.70;1.00
6178;DHT22;3122;48.208;11.174;2022-07-04T20:36:36;19.50;1.00
6178;DHT22;3122;48.208;11.174;2022-07-04T20:41:37;19.20;1.00
6178;DHT22;3122;48.208;11.174;2022-07-04T20:46:37;19.10;1.00
6178;DHT22;3122;48.208;11.174;2022-07-04T20:51:38;18.90;1.00
6178;DHT22;3122;48.208;11.174;2022-07-04T20:56:42;18.80;1.00
6178;DHT22;3122;48.208;11.174;2022-07-04T21:01:43;18.70;1.00
6178;DHT22;3122;48.208;11.174;2022-07-04T21:06:43;18.60;1.00
6178;DHT22;3122;48.208;11.174;2022-07-04T21:11:44;18.60;1.00
6178;DHT22;3122;48.208;11.174;2022-07-04T21:16:44;18.60;1.00
6178;DHT22;3122;48.208;11.174;2022-07-04T21:21:45;18.60;1.00
6178;DHT22;3122;48.208;11.174;2022-07-04T21:26:46;18.50;1.00
6178;DHT22;3122;48.208;11.174;2022-07-04T21:31:46;18.50;1.00
6178;DHT22;3122;48.208;11.174;2022-07-04T21:36:47;18.40;1.00
6178;DHT22;3122;48.208;11.174;2022-07-04T21:41:48;18.40;1.00
6178;DHT22;3122;48.208;11.174;2022-07-04T21:46:48;18.40;1.00
6178;DHT22;3122;48.208;11.174;2022-07-04T21:51:49;18.40;1.00
6178;DHT22;3122;48.208;11.174;2022-07-04T21:56:49;18.30;1.00
6178;DHT22;3122;48.208;11.174;2022-07-04T22:01:50;18.40;1.00
6178;DHT22;3122;48.208;11.174;2022-07-04T22:06:50;18.60;1.00
6178;DHT22;3122;48.208;11.174;2022-07-04T22:11:51;18.60;1.00
6178;DHT22;3122;48.208;11.174;2022-07-04T22:16:51;18.70;1.00
6178;DHT22;3122;48.208;11.174;2022-07-04T22:21:52;18.60;1.00
6178;DHT22;3122;48.208;11.174;2022-07-04T22:26:53;18.60;1.00
6178;DHT22;3122;48.208;11.174;2022-07-04T22:31:53;18.70;1.00
6178;DHT22;3122;48.208;11.174;2022-07-04T22:36:54;18.70;1.00
6178;DHT22;3122;48.208;11.174;2022-07-04T22:41:54;18.80;1.00
6178;DHT22;3122;48.208;11.174;2022-07-04T22:46:55;18.70;1.00
6178;DHT22;3122;48.208;11.174;2022-07-04T22:51:56;18.70;1.00
6178;DHT22;3122;48.208;11.174;2022-07-04T22:56:56;18.70;1.00
6178;DHT22;3122;48.208;11.174;2022-07-04T23:01:57;18.70;1.00
6178;DHT22;3122;48.208;11.174;2022-07-04T23:06:57;18.70;1.00
6178;DHT22;3122;48.208;11.174;2022-07-04T23:11:58;18.70;1.00
6178;DHT22;3122;48.208;11.174;2022-07-04T23:16:59;18.70;1.00
6178;DHT22;3122;48.208;11.174;2022-07-04T23:22:01;18.70;1.00
6178;DHT22;3122;48.208;11.174;2022-07-04T23:27:02;18.60;1.00
6178;DHT22;3122;48.208;11.174;2022-07-04T23:32:03;18.50;1.00
6178;DHT22;3122;48.208;11.174;2022-07-04T23:37:04;18.50;1.00
6178;DHT22;3122;48.208;11.174;2022-07-04T23:42:05;18.50;1.00
6178;DHT22;3122;48.208;11.174;2022-07-04T23:47:05;18.40;1.00
6178;DHT22;3122;48.208;11.174;2022-07-04T23:52:06;18.30;1.00
6178;DHT22;3122;48.208;11.174;2022-07-04T23:57:06;18.30;1.00
